Time;durP1;ratioP1;P1;durP2;ratioP2;P2;SDS_P1;SDS_P2;PMS_P1;PMS_P2;Temp;Humidity;BMP_temperature;BMP_pressure;BME280_temperature;BME280_humidity;BME280_pressure;Samples;Min_cycle;Max_cycle;Signal;HPM_P1;HPM_P2
2022/03/31 00:00:35;;;;;;;5.57;3.78;;;;;;;5.76;60.25;100058.94;5027982;28;20103;-84
2022/03/31 00:03:02;;;;;;;7.63;4.05;;;;;;;5.72;60.71;100059.03;5030033;28;20035;-84
2022/03/31 00:05:28;;;;;;;8.15;4.35;;;;;;;5.67;60.67;100050.53;5033587;28;20033;-84
2022/03/31 00:07:58;;;;;;;7.50;4.35;;;;;;;5.65;60.63;100053.16;5029211;28;20028;-84
2022/03/31 00:10:26;;;;;;;6.75;4.18;;;;;;;5.62;60.84;100053.19;5030077;28;20037;-83
2022/03/31 00:12:52;;;;;;;7.57;4.15;;;;;;;5.60;61.16;100065.25;5011258;28;20426;-84
2022/03/31 00:15:18;;;;;;;6.45;4.00;;;;;;;5.57;61.29;100057.56;5030095;28;20033;-84
2022/03/31 00:17:44;;;;;;;6.13;4.40;;;;;;;5.58;61.82;100056.69;5028345;28;20132;-84
2022/03/31 00:33:37;;;;;;;7.35;4.43;;;;;;;5.59;61.60;100042.91;5028916;28;20037;-84
2022/03/31 00:36:03;;;;;;;7.70;4.57;;;;;;;5.57;61.85;100040.38;5027780;28;20376;-84
2022/03/31 00:38:28;;;;;;;7.53;4.55;;;;;;;5.57;61.61;100044.69;5029733;28;20021;-84
2022/03/31 00:40:53;;;;;;;7.78;4.65;;;;;;;5.55;61.90;100047.28;5028952;28;20033;-84
2022/03/31 00:43:19;;;;;;;7.32;4.63;;;;;;;5.52;61.81;100037.03;5027516;28;20526;-84
2022/03/31 00:45:47;;;;;;;7.55;4.25;;;;;;;5.49;62.20;100024.16;5029682;28;20033;-84
2022/03/31 00:48:17;;;;;;;7.18;4.30;;;;;;;5.46;62.05;100032.00;5010020;28;20400;-84
2022/03/31 00:50:42;;;;;;;7.30;5.00;;;;;;;5.45;62.39;100038.03;5029069;28;20380;-84
2022/03/31 00:53:08;;;;;;;7.72;5.03;;;;;;;5.44;62.23;100026.84;5029815;28;20025;-84
2022/03/31 00:55:35;;;;;;;8.10;4.82;;;;;;;5.40;62.82;100037.25;5030929;28;20091;-84
2022/03/31 00:58:01;;;;;;;8.70;5.20;;;;;;;5.36;63.22;100025.28;5029793;28;20349;-84
2022/03/31 01:00:27;;;;;;;9.20;5.53;;;;;;;5.31;63.27;100028.78;5033219;28;20028;-83
2022/03/31 01:02:52;;;;;;;9.38;6.10;;;;;;;5.31;63.28;100028.78;5033866;28;20025;-84
2022/03/31 01:05:18;;;;;;;10.13;5.70;;;;;;;5.28;63.21;100026.28;5035736;28;20104;-83
2022/03/31 01:07:43;;;;;;;11.35;6.28;;;;;;;5.23;63.77;100029.78;5033065;28;20013;-83
2022/03/31 01:10:11;;;;;;;10.65;6.50;;;;;;;5.19;63.82;100029.00;5033197;28;20075;-84
2022/03/31 01:12:37;;;;;;;11.05;6.22;;;;;;;5.16;63.87;100044.50;5033399;28;20139;-84
2022/03/31 01:15:10;;;;;;;10.88;6.38;;;;;;;5.14;63.62;100033.38;5034446;28;20112;-83
2022/03/31 01:17:38;;;;;;;10.52;6.00;;;;;;;5.12;64.47;100035.16;5032139;28;20029;-84
2022/03/31 01:20:05;;;;;;;11.68;7.05;;;;;;;5.12;64.45;100027.41;5031998;28;20032;-84
2022/03/31 01:22:31;;;;;;;9.90;6.80;;;;;;;5.12;64.68;100027.41;5033193;28;20083;-84
2022/03/31 01:25:02;;;;;;;11.75;7.28;;;;;;;5.11;64.30;100017.97;5033909;28;20088;-84
2022/03/31 01:27:28;;;;;;;13.23;7.20;;;;;;;5.10;64.52;100024.00;5033177;28;20022;-84
2022/03/31 01:29:53;;;;;;;12.73;7.53;;;;;;;5.08;64.27;100024.00;5032959;28;20035;-84
2022/03/31 01:32:19;;;;;;;14.25;8.10;;;;;;;5.06;64.10;100027.50;5034149;28;20121;-84
2022/03/31 01:34:46;;;;;;;12.98;8.13;;;;;;;5.00;64.95;100026.72;5032840;28;20069;-84
2022/03/31 01:37:13;;;;;;;12.95;7.82;;;;;;;5.03;64.52;100024.97;5034819;28;20534;-84
2022/03/31 01:39:39;;;;;;;13.75;7.95;;;;;;;4.97;64.98;100019.03;5023400;28;20439;-84
2022/03/31 01:42:05;;;;;;;13.90;7.50;;;;;;;4.94;65.47;100029.41;5033781;28;20485;-84
2022/03/31 01:44:31;;;;;;;13.00;7.65;;;;;;;4.94;65.04;100019.09;5031573;28;20071;-84
2022/03/31 01:46:56;;;;;;;13.27;8.15;;;;;;;4.92;65.58;100026.00;5031962;28;20025;-84
2022/03/31 01:49:22;;;;;;;12.93;8.05;;;;;;;4.90;66.06;100029.44;5030985;28;20021;-83
2022/03/31 01:51:47;;;;;;;13.25;8.23;;;;;;;4.90;66.27;100024.31;5032228;28;20022;-84
2022/03/31 01:54:12;;;;;;;11.18;6.78;;;;;;;4.91;66.62;100019.13;5033736;28;20037;-84
2022/03/31 01:56:41;;;;;;;12.93;7.70;;;;;;;4.92;66.57;100013.13;5041987;28;20021;-84
2022/03/31 01:59:07;;;;;;;12.43;7.22;;;;;;;4.91;66.94;100011.41;5032565;28;20115;-84
2022/03/31 02:01:33;;;;;;;10.75;6.28;;;;;;;4.87;67.92;100014.91;5031604;28;20116;-84
2022/03/31 02:03:58;;;;;;;11.13;6.47;;;;;;;4.84;67.88;100010.66;5033136;28;20029;-84
2022/03/31 02:06:23;;;;;;;10.18;6.20;;;;;;;4.81;67.86;100009.84;5032099;28;20587;-83
2022/03/31 02:08:49;;;;;;;9.88;6.18;;;;;;;4.77;67.87;100006.47;5031108;28;20029;-83
2022/03/31 02:11:14;;;;;;;10.30;5.90;;;;;;;4.71;68.31;100006.53;5029943;28;20018;-84
2022/03/31 02:13:40;;;;;;;10.27;6.40;;;;;;;4.67;68.68;99998.00;5032286;28;20033;-83
2022/03/31 02:16:05;;;;;;;9.80;5.90;;;;;;;4.58;68.93;99993.00;5032455;28;20017;-83
2022/03/31 02:18:31;;;;;;;11.77;6.25;;;;;;;4.52;69.67;99985.38;5032306;28;20025;-83
2022/03/31 02:20:56;;;;;;;9.73;5.93;;;;;;;4.50;69.81;99993.13;5030316;28;20132;-84
2022/03/31 02:23:21;;;;;;;10.10;6.38;;;;;;;4.48;69.98;99982.00;5031400;28;20583;-83
2022/03/31 02:25:47;;;;;;;10.52;6.60;;;;;;;4.44;70.39;99984.66;5034446;28;20095;-83
2022/03/31 02:28:12;;;;;;;12.85;6.72;;;;;;;4.38;70.09;99980.41;5030608;28;20040;-83
2022/03/31 02:30:38;;;;;;;10.98;6.57;;;;;;;4.33;70.51;99979.63;5031551;28;20025;-83
2022/03/31 02:33:04;;;;;;;11.70;6.95;;;;;;;4.32;70.00;99978.78;5032259;28;20040;-83
2022/03/31 02:35:30;;;;;;;10.10;6.72;;;;;;;4.26;70.50;99973.72;5032025;28;20040;-83
2022/03/31 02:37:55;;;;;;;9.82;6.35;;;;;;;4.24;70.84;99980.63;5030258;28;20431;-83
2022/03/31 02:40:21;;;;;;;11.20;6.53;;;;;;;4.22;70.52;99972.91;5014393;28;20472;-83
2022/03/31 02:42:46;;;;;;;10.88;6.80;;;;;;;4.19;70.99;99972.94;5030404;28;20017;-84
2022/03/31 02:45:12;;;;;;;11.70;7.30;;;;;;;4.24;70.64;99975.47;5032542;28;20028;-84
2022/03/31 02:47:37;;;;;;;12.70;7.73;;;;;;;4.18;71.18;99972.97;5013442;28;20409;-83
2022/03/31 02:50:05;;;;;;;11.65;7.28;;;;;;;4.17;71.02;99971.25;5030599;28;20040;-83
2022/03/31 02:55:24;;;;;;;11.43;7.07;;;;;;;4.15;70.74;99973.00;5035578;28;20045;-83
2022/03/31 02:55:25;;;;;;;12.93;7.60;;;;;;;4.09;71.34;99961.94;5030620;28;20025;-84
2022/03/31 02:57:51;;;;;;;12.32;6.93;;;;;;;4.09;70.72;99976.50;5032668;28;20072;-83
2022/03/31 03:00:16;;;;;;;12.47;7.63;;;;;;;4.10;70.81;99968.75;5030857;28;20052;-83
2022/03/31 03:02:42;;;;;;;14.83;8.63;;;;;;;4.07;71.45;99973.97;5030619;28;20485;-84
2022/03/31 03:05:08;;;;;;;14.30;8.13;;;;;;;4.03;72.01;99974.88;5033286;28;20021;-83
2022/03/31 03:07:33;;;;;;;14.53;7.23;;;;;;;4.03;71.30;99974.88;5030376;28;20031;-83
2022/03/31 03:09:58;;;;;;;12.23;7.73;;;;;;;4.01;71.27;99962.91;5030355;28;20030;-83
2022/03/31 03:12:23;;;;;;;14.67;8.03;;;;;;;3.95;72.45;99974.97;5030611;28;20033;-83
2022/03/31 03:14:49;;;;;;;11.68;7.53;;;;;;;3.97;72.22;99967.22;5030320;28;20485;-84
2022/03/31 03:17:14;;;;;;;11.67;7.57;;;;;;;3.96;72.30;99952.66;5030511;28;20047;-83
2022/03/31 03:19:40;;;;;;;13.23;8.70;;;;;;;3.94;72.94;99951.81;5030447;28;20097;-83
2022/03/31 03:22:05;;;;;;;13.47;8.30;;;;;;;3.91;73.11;99951.88;5031101;28;20476;-84
2022/03/31 03:24:31;;;;;;;13.03;8.20;;;;;;;3.93;73.14;99950.97;5031451;28;20044;-84
2022/03/31 03:26:56;;;;;;;12.35;8.35;;;;;;;3.95;73.03;99938.06;5012954;28;20431;-83
2022/03/31 03:29:21;;;;;;;12.93;8.20;;;;;;;3.95;73.03;99938.94;5030466;28;20096;-83
2022/03/31 03:31:47;;;;;;;11.18;7.18;;;;;;;3.95;73.45;99932.94;5030929;28;20041;-83
2022/03/31 03:34:13;;;;;;;14.43;8.23;;;;;;;3.95;73.23;99922.63;5032885;28;20069;-83
2022/03/31 03:36:39;;;;;;;13.65;8.05;;;;;;;3.91;73.65;99921.00;5013036;28;20025;-83
2022/03/31 03:39:06;;;;;;;12.95;7.80;;;;;;;3.95;73.43;99922.63;5030824;28;20396;-83
2022/03/31 03:41:32;;;;;;;13.68;6.90;;;;;;;3.98;72.46;99921.75;5030963;28;20033;-84
2022/03/31 03:43:58;;;;;;;12.60;7.88;;;;;;;3.90;73.49;99919.28;5029600;28;20052;-83
2022/03/31 03:46:23;;;;;;;12.63;7.93;;;;;;;3.88;73.94;99926.19;5029830;28;20033;-83
2022/03/31 03:48:48;;;;;;;12.27;7.97;;;;;;;3.84;73.92;99925.38;5030406;28;20089;-84
2022/03/31 03:51:14;;;;;;;13.15;8.05;;;;;;;3.83;74.46;99923.66;5031197;28;20033;-84
2022/03/31 03:53:39;;;;;;;11.13;7.17;;;;;;;3.82;74.67;99932.25;5014055;28;20174;-83
2022/03/31 03:56:04;;;;;;;10.15;6.32;;;;;;;3.84;74.53;99929.66;5035743;28;20017;-84
2022/03/31 03:58:30;;;;;;;10.32;6.10;;;;;;;3.86;74.32;99927.91;5030961;28;20021;-84
2022/03/31 04:00:56;;;;;;;10.10;6.67;;;;;;;3.85;74.16;99932.19;5028634;28;20029;-83
2022/03/31 04:03:21;;;;;;;9.73;5.72;;;;;;;3.84;74.31;99939.94;5030783;28;20029;-83
2022/03/31 04:05:46;;;;;;;9.30;6.10;;;;;;;3.82;74.22;99937.41;5031416;28;20049;-84
2022/03/31 04:08:13;;;;;;;8.23;5.70;;;;;;;3.83;74.64;99938.25;5029671;28;20025;-84
2022/03/31 04:10:39;;;;;;;9.13;5.70;;;;;;;3.82;74.28;99936.53;5030137;28;20037;-84
2022/03/31 04:13:04;;;;;;;8.57;5.20;;;;;;;3.83;74.26;99936.53;5028659;28;20507;-83
2022/03/31 04:15:29;;;;;;;8.32;5.07;;;;;;;3.82;73.78;99936.53;5031308;28;20036;-83
2022/03/31 04:17:55;;;;;;;8.57;4.83;;;;;;;3.81;73.80;99938.28;5029388;28;20044;-83
2022/03/31 04:20:20;;;;;;;6.93;4.88;;;;;;;3.80;73.74;99945.13;5030802;28;20107;-84
2022/03/31 04:22:45;;;;;;;6.73;4.47;;;;;;;3.75;73.55;99941.78;5030524;28;20487;-83
2022/03/31 04:25:12;;;;;;;7.80;4.47;;;;;;;3.75;73.19;99940.91;5030601;28;20136;-83
2022/03/31 04:27:39;;;;;;;7.57;4.90;;;;;;;3.69;73.52;99946.13;5032402;28;20036;-83
2022/03/31 04:30:10;;;;;;;8.32;4.70;;;;;;;3.62;74.00;99945.34;5030577;28;20057;-83
2022/03/31 04:32:36;;;;;;;8.57;4.23;;;;;;;3.62;73.56;99945.34;5031417;28;20401;-87
2022/03/31 04:35:01;;;;;;;6.83;4.03;;;;;;;3.56;73.73;99950.56;5035665;28;20295;-83
2022/03/31 04:37:27;;;;;;;7.00;4.20;;;;;;;3.49;73.78;99953.22;5044863;28;20017;-84
2022/03/31 04:39:52;;;;;;;7.23;4.17;;;;;;;3.42;74.21;99948.97;5035104;28;20029;-83
2022/03/31 04:42:19;;;;;;;5.40;3.63;;;;;;;3.41;74.26;99947.31;5034966;28;20112;-84
2022/03/31 04:44:44;;;;;;;4.97;3.43;;;;;;;3.37;74.26;99950.78;5032261;28;20033;-83
2022/03/31 04:47:11;;;;;;;5.13;3.40;;;;;;;3.33;74.48;99949.09;5033660;28;20055;-83
2022/03/31 04:49:37;;;;;;;4.70;3.13;;;;;;;3.33;74.76;99949.09;5015519;28;20151;-83
2022/03/31 04:52:02;;;;;;;4.38;2.90;;;;;;;3.33;73.76;99943.94;5034026;28;20115;-83
2022/03/31 04:54:28;;;;;;;4.83;3.30;;;;;;;3.23;74.76;99953.47;5036156;28;20372;-83
2022/03/31 04:56:53;;;;;;;4.80;3.07;;;;;;;3.15;74.80;99950.97;5030332;28;20029;-83
2022/03/31 04:59:18;;;;;;;4.10;3.03;;;;;;;3.11;75.09;99951.88;5029534;28;20034;-83
2022/03/31 05:01:44;;;;;;;3.60;2.70;;;;;;;3.07;74.85;99952.78;5028210;28;20034;-83
2022/03/31 05:04:09;;;;;;;4.43;3.00;;;;;;;3.01;74.94;99955.41;5011523;28;20029;-83
2022/03/31 05:06:35;;;;;;;5.67;3.00;;;;;;;2.97;75.03;99956.28;5030688;28;20024;-83
2022/03/31 05:09:02;;;;;;;4.10;2.83;;;;;;;2.93;75.35;99952.03;5030909;28;20033;-83
2022/03/31 05:11:27;;;;;;;5.20;2.90;;;;;;;2.85;76.00;99958.09;5033456;28;20032;-83
2022/03/31 05:13:52;;;;;;;4.57;2.83;;;;;;;2.88;75.96;99958.09;5033558;28;20041;-83
2022/03/31 05:16:17;;;;;;;4.13;2.77;;;;;;;2.82;75.89;99955.56;5034027;28;20033;-83
2022/03/31 05:18:43;;;;;;;3.50;2.47;;;;;;;2.82;75.69;99958.13;5032037;28;20033;-83
2022/03/31 05:21:08;;;;;;;4.13;2.60;;;;;;;2.80;75.74;99948.75;5033073;28;20030;-83
2022/03/31 05:23:34;;;;;;;4.17;2.53;;;;;;;2.77;75.27;99954.72;5040069;28;20048;-83
2022/03/31 05:25:59;;;;;;;3.50;2.53;;;;;;;2.71;75.04;99954.81;5032214;28;20100;-83
2022/03/31 05:28:27;;;;;;;4.43;2.63;;;;;;;2.64;75.61;99953.13;5034656;28;20024;-83
2022/03/31 05:30:52;;;;;;;4.87;3.00;;;;;;;2.57;75.79;99958.31;5018221;28;20387;-84
2022/03/31 05:33:19;;;;;;;4.70;2.43;;;;;;;2.56;76.13;99960.91;5030616;28;20058;-85
2022/03/31 05:35:44;;;;;;;4.33;2.50;;;;;;;2.48;76.89;99958.38;5030183;28;20037;-84
2022/03/31 05:38:10;;;;;;;4.60;2.80;;;;;;;2.45;76.33;99957.56;5032490;28;20044;-85
2022/03/31 05:40:35;;;;;;;4.90;2.50;;;;;;;2.43;76.33;99954.97;5016414;28;20041;-85
2022/03/31 05:43:01;;;;;;;3.53;2.60;;;;;;;2.43;76.37;99957.53;5032768;28;20040;-84
2022/03/31 05:45:26;;;;;;;3.97;2.63;;;;;;;2.43;76.14;99957.53;5014330;28;20116;-84
2022/03/31 05:47:53;;;;;;;3.93;2.67;;;;;;;2.41;76.49;99959.28;5017887;28;20383;-85
2022/03/31 05:50:19;;;;;;;3.97;2.60;;;;;;;2.35;76.67;99970.44;5033107;28;20029;-85
2022/03/31 05:52:44;;;;;;;4.40;2.63;;;;;;;2.40;76.56;99975.53;5043368;28;20083;-86
2022/03/31 05:55:13;;;;;;;3.90;2.80;;;;;;;2.41;76.88;99979.81;5032988;28;20037;-85
2022/03/31 05:57:38;;;;;;;4.60;2.83;;;;;;;2.41;76.83;99969.53;5033049;28;20101;-85
2022/03/31 06:00:07;;;;;;;3.43;2.43;;;;;;;2.47;76.57;99972.06;5034060;28;20033;-85
2022/03/31 06:02:32;;;;;;;3.63;2.33;;;;;;;2.49;76.49;99974.63;5032589;28;20032;-85
2022/03/31 06:04:57;;;;;;;4.17;2.70;;;;;;;2.49;75.75;99970.34;5033405;28;20037;-85
2022/03/31 06:07:23;;;;;;;2.77;1.87;;;;;;;2.43;75.23;99966.13;5033298;28;20045;-84
2022/03/31 06:09:48;;;;;;;2.20;1.83;;;;;;;2.31;75.63;99976.44;5033642;28;20060;-85
2022/03/31 06:12:13;;;;;;;3.13;2.00;;;;;;;2.22;75.47;99977.34;5033872;28;20169;-84
2022/03/31 06:14:38;;;;;;;2.80;2.17;;;;;;;2.16;75.60;99966.25;5033509;28;20369;-84
2022/03/31 06:17:04;;;;;;;3.60;2.07;;;;;;;2.07;75.47;99972.28;5033028;28;20029;-84
2022/03/31 06:19:30;;;;;;;2.70;2.10;;;;;;;2.02;75.22;99966.34;5015485;28;20048;-84
2022/03/31 06:21:55;;;;;;;2.40;1.90;;;;;;;1.88;75.95;99962.13;5034525;28;20488;-84
2022/03/31 06:24:20;;;;;;;2.27;1.87;;;;;;;1.82;75.77;99972.41;5016206;28;20524;-84
2022/03/31 06:26:46;;;;;;;2.77;1.80;;;;;;;1.83;75.19;99966.44;5015868;28;20027;-84
2022/03/31 06:29:13;;;;;;;2.77;1.80;;;;;;;1.70;75.77;99977.59;5033075;28;20040;-84
2022/03/31 06:31:38;;;;;;;3.43;1.93;;;;;;;1.59;75.94;99975.06;5017834;28;20053;-84
2022/03/31 06:34:04;;;;;;;3.07;2.13;;;;;;;1.51;76.16;99972.53;5034394;28;20044;-84
2022/03/31 06:36:30;;;;;;;2.87;1.97;;;;;;;1.49;76.71;99974.22;5033618;28;20025;-84
2022/03/31 06:38:56;;;;;;;2.87;2.10;;;;;;;1.51;76.71;99972.53;5014451;28;20389;-84
2022/03/31 06:41:21;;;;;;;2.10;1.70;;;;;;;1.50;76.69;99970.81;5037116;28;20035;-84
2022/03/31 06:43:48;;;;;;;2.83;1.87;;;;;;;1.47;76.32;99979.34;5034444;28;20056;-84
2022/03/31 06:46:15;;;;;;;2.57;1.90;;;;;;;1.48;76.82;99981.06;5033010;28;20045;-84
2022/03/31 06:48:43;;;;;;;2.67;1.90;;;;;;;1.51;76.00;99980.22;5032150;28;20407;-84
2022/03/31 06:51:10;;;;;;;2.70;1.87;;;;;;;1.44;76.62;99966.56;5032187;28;20108;-84
2022/03/31 06:53:37;;;;;;;2.87;1.90;;;;;;;1.41;76.22;99970.81;5032816;28;20495;-84
2022/03/31 06:56:09;;;;;;;2.93;2.00;;;;;;;1.38;76.50;99971.69;5031571;28;20033;-83
2022/03/31 06:58:35;;;;;;;3.10;2.13;;;;;;;1.34;76.96;99981.09;5031748;28;20108;-84
2022/03/31 07:01:01;;;;;;;3.83;2.20;;;;;;;1.33;77.44;99978.53;5014730;28;20066;-84
2022/03/31 07:03:27;;;;;;;3.43;1.90;;;;;;;1.38;77.25;99981.06;5032248;28;20029;-84
2022/03/31 07:05:55;;;;;;;2.80;1.90;;;;;;;1.42;77.63;99983.66;5031586;28;20079;-83
2022/03/31 07:08:21;;;;;;;2.40;2.00;;;;;;;1.42;76.95;99986.22;5032184;28;20060;-84
2022/03/31 07:10:47;;;;;;;2.77;1.80;;;;;;;1.43;77.46;99979.38;5031726;28;20468;-83
2022/03/31 07:13:13;;;;;;;2.60;1.90;;;;;;;1.46;77.42;99974.22;5036258;28;20055;-83
2022/03/31 07:15:38;;;;;;;2.90;2.00;;;;;;;1.51;76.97;99978.50;5032080;28;20052;-83
2022/03/31 07:18:05;;;;;;;2.70;2.10;;;;;;;1.57;77.07;99974.22;5033688;28;21619;-83
2022/03/31 07:20:31;;;;;;;2.40;1.93;;;;;;;1.61;77.14;99976.75;5030002;28;20029;-83
2022/03/31 07:22:56;;;;;;;2.83;2.00;;;;;;;1.63;76.82;99969.91;5034676;28;20037;-83
2022/03/31 07:25:22;;;;;;;2.53;2.10;;;;;;;1.65;77.27;99983.59;5031478;28;20022;-84
2022/03/31 07:27:48;;;;;;;2.67;2.03;;;;;;;1.64;76.92;99975.88;5032532;28;20104;-84
2022/03/31 07:30:15;;;;;;;2.57;1.90;;;;;;;1.64;77.04;99984.44;5032164;28;20079;-84
2022/03/31 07:32:47;;;;;;;3.30;2.30;;;;;;;1.70;77.65;99973.31;5037960;28;20099;-83
2022/03/31 07:35:13;;;;;;;2.47;1.87;;;;;;;1.77;77.66;99974.13;5031911;28;20033;-83
2022/03/31 07:37:38;;;;;;;3.47;1.90;;;;;;;1.85;77.21;99974.97;5029616;28;20021;-83
2022/03/31 07:40:04;;;;;;;2.80;2.20;;;;;;;1.89;77.26;99976.66;5029977;28;20036;-84
2022/03/31 07:42:30;;;;;;;2.53;1.90;;;;;;;1.89;77.41;99968.94;5031495;28;20029;-84
2022/03/31 07:44:55;;;;;;;3.73;1.97;;;;;;;1.91;77.21;99972.38;5031946;28;20044;-83
2022/03/31 07:47:21;;;;;;;2.30;1.80;;;;;;;1.93;77.10;99980.06;5033189;28;20033;-83
2022/03/31 07:49:49;;;;;;;2.73;2.03;;;;;;;1.89;77.36;99979.22;5033975;28;20057;-83
2022/03/31 07:52:15;;;;;;;2.60;2.00;;;;;;;1.88;77.76;99977.50;5042373;28;20033;-83
2022/03/31 07:54:40;;;;;;;2.30;1.80;;;;;;;1.90;76.97;99974.94;5034001;28;20108;-83
2022/03/31 07:57:05;;;;;;;2.30;1.90;;;;;;;1.88;77.62;99977.50;5034321;28;20021;-83
2022/03/31 07:59:33;;;;;;;2.40;1.80;;;;;;;1.91;77.45;99976.66;5032228;28;20029;-83
2022/03/31 08:02:02;;;;;;;2.70;1.90;;;;;;;1.97;77.64;99976.63;5014293;28;20021;-83
2022/03/31 08:04:27;;;;;;;2.70;1.97;;;;;;;2.00;77.88;99978.31;5032006;28;20025;-83
2022/03/31 08:06:56;;;;;;;2.20;1.80;;;;;;;2.05;77.36;99976.59;5031298;28;20025;-83
2022/03/31 08:09:21;;;;;;;2.50;1.93;;;;;;;2.07;77.22;99967.16;5039783;28;20116;-84
2022/03/31 08:11:51;;;;;;;2.33;1.80;;;;;;;2.10;77.03;99972.28;5034610;28;20112;-83
2022/03/31 08:14:19;;;;;;;2.53;1.90;;;;;;;2.15;77.68;99962.84;5033664;28;20079;-84
2022/03/31 08:16:46;;;;;;;2.50;2.10;;;;;;;2.20;77.55;99968.81;5033540;28;20040;-84
2022/03/31 08:19:12;;;;;;;2.87;2.10;;;;;;;2.26;77.08;99965.38;5037729;28;20392;-85
2022/03/31 08:21:37;;;;;;;3.00;2.40;;;;;;;2.28;77.40;99971.34;5032882;28;20095;-84
2022/03/31 08:24:03;;;;;;;2.27;1.97;;;;;;;2.33;77.49;99963.63;5036537;28;20467;-84
2022/03/31 08:26:28;;;;;;;2.50;2.10;;;;;;;2.41;77.61;99967.84;5034095;28;20177;-84
2022/03/31 08:28:53;;;;;;;2.67;2.10;;;;;;;2.44;77.16;99966.97;5034965;28;20037;-84
2022/03/31 08:31:19;;;;;;;2.67;2.20;;;;;;;2.46;77.49;99972.09;5034319;28;20541;-84
2022/03/31 08:33:44;;;;;;;2.43;2.00;;;;;;;2.44;76.82;99977.22;5034012;28;20420;-84
2022/03/31 08:36:09;;;;;;;3.03;2.00;;;;;;;2.41;77.36;99972.09;5031505;28;20100;-84
2022/03/31 08:38:34;;;;;;;2.53;1.90;;;;;;;2.40;76.98;99978.09;5034479;28;20059;-84
2022/03/31 08:41:02;;;;;;;2.83;2.07;;;;;;;2.40;77.40;99972.97;5034163;28;20033;-84
2022/03/31 08:43:30;;;;;;;2.27;1.87;;;;;;;2.44;77.37;99977.22;5034875;28;20029;-84
2022/03/31 08:45:55;;;;;;;2.37;1.87;;;;;;;2.45;76.48;99976.38;5034052;28;20108;-84
2022/03/31 08:48:23;;;;;;;2.33;1.90;;;;;;;2.43;77.51;99971.25;5034130;28;20100;-84
2022/03/31 08:50:49;;;;;;;3.10;2.03;;;;;;;2.39;78.03;99969.56;5033654;28;20044;-84
2022/03/31 08:53:14;;;;;;;2.33;1.90;;;;;;;2.45;77.89;99962.69;5034354;28;20029;-84
2022/03/31 08:55:39;;;;;;;2.47;2.00;;;;;;;2.50;78.08;99959.22;5034668;28;20132;-84
2022/03/31 08:58:05;;;;;;;2.10;1.70;;;;;;;2.55;77.99;99964.31;5034440;28;20136;-84
2022/03/31 09:00:30;;;;;;;1.90;1.70;;;;;;;2.61;77.70;99963.41;5033149;28;20037;-83
2022/03/31 09:02:56;;;;;;;2.57;1.90;;;;;;;2.67;78.15;99960.81;5032419;28;20029;-83
2022/03/31 09:05:22;;;;;;;1.90;1.73;;;;;;;2.71;77.84;99960.78;5015299;28;20032;-83
2022/03/31 09:08:00;;;;;;;2.20;1.80;;;;;;;2.74;77.64;99965.03;5031859;28;20022;-83
2022/03/31 09:10:33;;;;;;;2.07;1.60;;;;;;;2.72;77.39;99961.66;5023575;28;20032;-83
2022/03/31 09:13:01;;;;;;;1.97;1.70;;;;;;;2.74;78.46;99967.59;5035223;28;20022;-84
2022/03/31 09:15:27;;;;;;;2.00;1.70;;;;;;;2.84;78.92;99961.53;5035782;28;21846;-84
2022/03/31 09:17:54;;;;;;;2.23;1.80;;;;;;;2.92;78.43;99969.19;5033333;28;20057;-84
2022/03/31 09:20:21;;;;;;;1.80;1.50;;;;;;;2.98;77.89;99968.28;5032693;28;20104;-84
2022/03/31 09:22:51;;;;;;;2.40;1.97;;;;;;;3.02;78.32;99972.53;5032892;28;20021;-84
2022/03/31 09:25:24;;;;;;;2.40;1.60;;;;;;;3.08;77.96;99977.59;5032139;28;20021;-84
2022/03/31 09:27:49;;;;;;;2.30;1.80;;;;;;;3.09;77.88;99971.59;5032943;28;20018;-84
2022/03/31 09:30:15;;;;;;;2.20;1.80;;;;;;;3.10;77.78;99977.59;5033132;28;20030;-84
2022/03/31 09:32:48;;;;;;;2.20;1.80;;;;;;;3.12;77.88;99986.97;5031668;28;20158;-84
2022/03/31 09:35:17;;;;;;;2.13;1.80;;;;;;;3.14;77.77;99969.84;5030574;28;20044;-84
2022/03/31 09:37:43;;;;;;;2.20;1.77;;;;;;;3.15;77.69;99981.81;5037429;28;20013;-84
2022/03/31 09:40:09;;;;;;;2.43;2.00;;;;;;;3.19;77.51;99978.38;5032143;28;20493;-84
2022/03/31 09:42:34;;;;;;;2.57;1.87;;;;;;;3.21;77.96;99985.22;5032513;28;20120;-84
2022/03/31 09:44:59;;;;;;;2.57;2.00;;;;;;;3.23;77.73;99979.19;5037786;28;20116;-84
2022/03/31 09:47:26;;;;;;;2.70;2.10;;;;;;;3.23;77.84;99980.91;5034798;28;20376;-84
2022/03/31 09:49:55;;;;;;;2.73;2.03;;;;;;;3.25;78.00;99972.31;5033205;28;20075;-84
2022/03/31 09:52:21;;;;;;;3.30;1.80;;;;;;;3.29;77.55;99967.97;5033073;28;20021;-84
2022/03/31 09:54:48;;;;;;;3.03;2.20;;;;;;;3.32;77.25;99973.97;5031680;28;20021;-84
2022/03/31 09:57:14;;;;;;;2.53;2.03;;;;;;;3.39;77.63;99979.03;5016214;28;20032;-84
2022/03/31 09:59:42;;;;;;;2.40;2.03;;;;;;;3.44;77.78;99962.69;5030748;28;20029;-84
2022/03/31 10:02:08;;;;;;;2.83;2.13;;;;;;;3.47;77.60;99962.66;5034755;28;20033;-84
2022/03/31 10:04:34;;;;;;;2.60;2.20;;;;;;;3.51;76.76;99960.88;5031066;28;20029;-84
2022/03/31 10:07:00;;;;;;;2.50;2.10;;;;;;;3.56;77.60;99966.00;5036011;28;20052;-84
2022/03/31 10:09:26;;;;;;;3.00;2.27;;;;;;;3.63;77.89;99962.47;5031859;28;20037;-84
2022/03/31 10:12:08;;;;;;;2.70;2.20;;;;;;;3.72;77.31;99962.38;5030714;28;20079;-84
2022/03/31 10:14:54;;;;;;;2.83;2.27;;;;;;;3.72;77.01;99964.97;5032203;28;20195;-84
2022/03/31 10:17:26;;;;;;;2.73;2.23;;;;;;;3.75;78.12;99961.50;5032648;28;20025;-84
2022/03/31 10:19:52;;;;;;;2.47;2.13;;;;;;;3.77;76.58;99958.03;5034449;28;20025;-84
2022/03/31 10:25:09;;;;;;;2.40;1.87;;;;;;;3.87;77.43;99965.66;5030684;28;20156;-84
2022/03/31 10:27:37;;;;;;;2.80;2.50;;;;;;;3.87;77.49;99963.91;5030704;28;20032;-84
2022/03/31 10:30:16;;;;;;;2.40;2.05;;;;;;;3.87;76.64;99960.50;5014022;28;20029;-84
2022/03/31 10:33:01;;;;;;;3.23;2.40;;;;;;;3.89;76.61;99948.47;5028135;28;20094;-84
2022/03/31 10:35:28;;;;;;;2.80;2.17;;;;;;;3.92;77.05;99949.28;5030778;28;20074;-84
2022/03/31 10:37:55;;;;;;;2.60;2.00;;;;;;;3.89;77.29;99958.75;5030901;28;20159;-84
2022/03/31 10:40:34;;;;;;;3.43;2.33;;;;;;;3.92;77.45;99956.16;5029111;28;20029;-84
2022/03/31 10:43:01;;;;;;;2.80;2.30;;;;;;;3.96;77.01;99955.22;5029844;28;20048;-84
2022/03/31 10:45:40;;;;;;;3.40;2.30;;;;;;;3.95;76.57;99958.66;5014538;28;20025;-84
2022/03/31 10:48:23;;;;;;;3.40;2.50;;;;;;;3.97;76.16;99959.50;5031965;28;20078;-84
2022/03/31 10:51:04;;;;;;;3.50;2.67;;;;;;;3.95;76.24;99956.97;5030112;28;20037;-84
2022/03/31 10:53:31;;;;;;;3.50;2.80;;;;;;;3.90;76.40;99963.03;5031128;28;20036;-84
2022/03/31 10:55:58;;;;;;;3.40;2.70;;;;;;;3.85;76.54;99957.09;5031535;28;20361;-84
2022/03/31 10:58:25;;;;;;;2.67;2.25;;;;;;;3.83;75.72;99956.25;5030102;28;20033;-84
2022/03/31 11:00:52;;;;;;;3.10;2.60;;;;;;;3.83;76.88;99953.69;5031032;28;20091;-84
2022/03/31 11:03:18;;;;;;;3.17;2.42;;;;;;;3.86;76.09;99953.66;5030428;28;20125;-84
2022/03/31 11:05:43;;;;;;;3.47;2.70;;;;;;;3.87;76.41;99957.94;5029855;28;20033;-85
2022/03/31 11:08:09;;;;;;;2.80;2.30;;;;;;;3.89;76.78;99956.19;5012707;28;20037;-84
2022/03/31 11:10:42;;;;;;;2.90;2.40;;;;;;;3.91;76.23;99962.16;5030214;28;20486;-84
2022/03/31 11:13:08;;;;;;;3.20;2.50;;;;;;;3.88;76.05;99949.34;5029583;28;20468;-84
2022/03/31 11:15:34;;;;;;;3.35;2.65;;;;;;;3.87;76.72;99961.34;5032114;28;20036;-87
2022/03/31 11:18:00;;;;;;;2.83;2.40;;;;;;;3.92;76.49;99953.59;5029371;28;20029;-85
2022/03/31 11:20:27;;;;;;;3.40;2.50;;;;;;;3.95;76.98;99953.50;5030132;28;20025;-84
2022/03/31 11:22:55;;;;;;;3.88;2.67;;;;;;;4.00;76.95;99946.59;5030656;28;20036;-84
2022/03/31 11:25:22;;;;;;;3.80;2.65;;;;;;;4.03;76.63;99949.13;5031455;28;20036;-84
2022/03/31 11:27:49;;;;;;;2.90;2.40;;;;;;;4.06;77.26;99940.50;5030072;28;20017;-84
2022/03/31 11:30:18;;;;;;;3.20;2.60;;;;;;;4.11;78.04;99938.72;5029625;28;20048;-84
2022/03/31 11:32:45;;;;;;;2.85;2.40;;;;;;;4.15;77.09;99934.38;5029728;28;20067;-84
2022/03/31 11:35:13;;;;;;;3.40;2.47;;;;;;;4.18;77.11;99934.34;5029749;28;20112;-84
2022/03/31 11:37:48;;;;;;;3.13;2.55;;;;;;;4.17;76.96;99936.09;5032699;28;20443;-85
2022/03/31 11:40:38;;;;;;;3.33;2.60;;;;;;;4.18;76.94;99936.91;5035283;28;20017;-85
2022/03/31 11:43:08;;;;;;;3.30;2.70;;;;;;;4.17;76.70;99936.09;5031363;28;20029;-84
2022/03/31 11:45:43;;;;;;;3.28;2.65;;;;;;;4.17;75.59;99932.66;5039922;28;20057;-84
2022/03/31 11:48:21;;;;;;;3.30;2.50;;;;;;;4.15;76.79;99929.25;5030559;28;21737;-84
2022/03/31 11:50:56;;;;;;;3.33;2.65;;;;;;;4.17;77.17;99928.38;5021964;28;20029;-85
2022/03/31 11:53:34;;;;;;;3.17;2.70;;;;;;;4.22;76.25;99928.28;5010912;28;20041;-84